Destinations Ljubljana Jože Pucnik Airport

Ljubljana Jože Pucnik Airport (LJLJ / LJU)

Flights to Ljubljana Jože Pucnik Airport

Flight number From ETE Dispatch
SPY-2512 EGPH Edinburgh Airport 02:45
SPY-526 EHGG Groningen Airport Eelde 01:55

Flights from Ljubljana Jože Pucnik Airport

Flight number To ETE Dispatch
SPY-2513 EGPH Edinburgh Airport 02:40
SPY-527 EHGG Groningen Airport Eelde 02:05
About

Ljubljana Jože Pucnik Airport facts

Ljubljana Jože Pucnik Airport is located in Ljubljana at an elevation of 388.0 meters or 1273 feet.

Currently, Speedy Airlines serves 4 flights to and from Ljubljana Jože Pucnik Airport.

Detailed airport info

Route map

Weather

Current weather

METAR

METAR

Metar data retrieved Sunday, 21 July 2024 at 20:25 UTC

LJLJ 212000Z VRB02KT 9999 FEW047 23/21 Q1011 NOSIG
Wind Temperature
2 kt 23c